Time;durP1;ratioP1;P1;durP2;ratioP2;P2;SDS_P1;SDS_P2;PMS_P1;PMS_P2;Temp;Humidity;BMP_temperature;BMP_pressure;BME280_temperature;BME280_humidity;BME280_pressure;Samples;Min_cycle;Max_cycle;Signal;HPM_P1;HPM_P2
2022/10/24 00:00:21;;;;;;;8.40;3.50;;;;;;;;;;5054231;28;20184;-90
2022/10/24 00:02:47;;;;;;;5.17;3.30;;;;;;;;;;5057183;28;20180;-90
2022/10/24 00:05:13;;;;;;;8.33;3.80;;;;;;;;;;5072012;28;20241;-91
2022/10/24 00:07:39;;;;;;;6.47;3.63;;;;;;;;;;5055752;28;20188;-91
2022/10/24 00:10:06;;;;;;;8.63;3.57;;;;;;;;;;5071431;28;20188;-90
2022/10/24 00:12:32;;;;;;;9.20;3.37;;;;;;;;;;5055576;28;20180;-90
2022/10/24 00:14:58;;;;;;;5.27;3.40;;;;;;;;;;5055728;28;20240;-90
2022/10/24 00:17:24;;;;;;;9.40;3.87;;;;;;;;;;5056137;28;20188;-82
2022/10/24 00:19:53;;;;;;;9.93;3.63;;;;;;;;;;5042189;28;20191;-81
2022/10/24 00:22:19;;;;;;;10.43;3.53;;;;;;;;;;5052667;28;20200;-81
2022/10/24 00:24:45;;;;;;;8.63;3.30;;;;;;;;;;5038107;28;20282;-82
2022/10/24 00:27:11;;;;;;;7.77;3.30;;;;;;;;;;5055172;28;20271;-90
2022/10/24 00:29:37;;;;;;;7.60;3.43;;;;;;;;;;5038377;28;20241;-90
2022/10/24 00:32:03;;;;;;;8.50;3.30;;;;;;;;;;5037548;28;20188;-78
2022/10/24 00:34:29;;;;;;;5.80;3.00;;;;;;;;;;5042299;28;20189;-82
2022/10/24 00:36:55;;;;;;;7.07;3.17;;;;;;;;;;5053165;28;20230;-82
2022/10/24 00:39:21;;;;;;;8.17;3.27;;;;;;;;;;5037886;28;20179;-82
2022/10/24 00:41:47;;;;;;;6.37;2.93;;;;;;;;;;5037586;28;20176;-82
2022/10/24 00:44:21;;;;;;;7.23;3.07;;;;;;;;;;5070519;28;20242;-82
2022/10/24 00:46:48;;;;;;;8.90;3.00;;;;;;;;;;5058129;28;20191;-83
2022/10/24 00:49:15;;;;;;;8.57;3.03;;;;;;;;;;5063194;28;20176;-81
2022/10/24 00:51:42;;;;;;;8.63;3.10;;;;;;;;;;5053884;28;20227;-82
2022/10/24 00:54:09;;;;;;;7.17;2.87;;;;;;;;;;5053784;28;20191;-83
2022/10/24 00:56:37;;;;;;;8.37;3.30;;;;;;;;;;5054127;28;20341;-83
2022/10/24 00:59:04;;;;;;;7.93;3.23;;;;;;;;;;5055260;28;20190;-82
2022/10/24 01:01:32;;;;;;;11.03;2.90;;;;;;;;;;5053549;28;20202;-82
2022/10/24 01:03:58;;;;;;;10.00;3.13;;;;;;;;;;5053477;28;20180;-82
2022/10/24 01:06:24;;;;;;;7.17;2.67;;;;;;;;;;5055606;28;20191;-82
2022/10/24 01:08:56;;;;;;;8.57;2.80;;;;;;;;;;5054557;28;20215;-78
2022/10/24 01:11:47;;;;;;;7.37;3.03;;;;;;;;;;5054360;28;20198;-81
2022/10/24 01:14:31;;;;;;;6.97;3.07;;;;;;;;;;5070707;28;20184;-81
2022/10/24 01:17:07;;;;;;;8.23;3.10;;;;;;;;;;5055049;28;20290;-82
2022/10/24 01:19:33;;;;;;;7.20;3.20;;;;;;;;;;5054906;28;20247;-82
2022/10/24 01:22:03;;;;;;;10.63;2.97;;;;;;;;;;5055298;28;20222;-82
2022/10/24 01:24:48;;;;;;;9.47;3.30;;;;;;;;;;5058224;28;20285;-90
2022/10/24 01:27:29;;;;;;;9.57;2.90;;;;;;;;;;5073401;28;20210;-90
2022/10/24 01:30:04;;;;;;;6.83;3.30;;;;;;;;;;5057525;28;20188;-90
2022/10/24 01:32:36;;;;;;;6.83;2.97;;;;;;;;;;5054730;28;20176;-90
2022/10/24 01:35:17;;;;;;;6.23;2.93;;;;;;;;;;5061154;28;20184;-90
2022/10/24 01:38:05;;;;;;;12.20;3.17;;;;;;;;;;5059956;28;20187;-90
2022/10/24 01:40:51;;;;;;;9.20;3.00;;;;;;;;;;5074220;28;20208;-78
2022/10/24 01:43:19;;;;;;;8.03;3.23;;;;;;;;;;5062278;28;20182;-79
2022/10/24 01:45:46;;;;;;;9.00;3.27;;;;;;;;;;5060512;28;20187;-78
2022/10/24 01:48:15;;;;;;;8.67;3.23;;;;;;;;;;5059892;28;20180;-79
2022/10/24 01:50:41;;;;;;;7.13;3.00;;;;;;;;;;5060701;28;20226;-79
2022/10/24 01:53:08;;;;;;;7.43;3.10;;;;;;;;;;5061529;28;20186;-79
2022/10/24 01:55:35;;;;;;;7.90;3.10;;;;;;;;;;5061245;28;20215;-79
2022/10/24 01:58:01;;;;;;;7.10;2.90;;;;;;;;;;5059080;28;20225;-81
2022/10/24 02:00:27;;;;;;;7.83;3.00;;;;;;;;;;5060767;28;20227;-90
2022/10/24 02:03:00;;;;;;;7.80;3.10;;;;;;;;;;5076717;28;20258;-91
2022/10/24 02:05:33;;;;;;;8.53;3.10;;;;;;;;;;5060912;28;20241;-91
2022/10/24 02:08:02;;;;;;;7.20;3.13;;;;;;;;;;5056704;28;20267;-91
2022/10/24 02:10:30;;;;;;;7.93;3.20;;;;;;;;;;5058374;28;20274;-91
2022/10/24 02:13:03;;;;;;;9.63;3.40;;;;;;;;;;5059730;28;20179;-91
2022/10/24 02:15:30;;;;;;;6.13;2.97;;;;;;;;;;5062197;28;20269;-91
2022/10/24 02:17:57;;;;;;;10.47;2.93;;;;;;;;;;5053941;28;20172;-90
2022/10/24 02:20:27;;;;;;;9.13;2.73;;;;;;;;;;5081131;28;20192;-89
2022/10/24 02:23:00;;;;;;;9.30;3.03;;;;;;;;;;5060682;28;20168;-90
2022/10/24 02:25:36;;;;;;;6.20;2.90;;;;;;;;;;5059518;28;20266;-91
2022/10/24 02:28:07;;;;;;;7.53;3.03;;;;;;;;;;5058507;28;20186;-90
2022/10/24 02:33:29;;;;;;;8.53;3.30;;;;;;;;;;5055461;28;20219;-89
2022/10/24 02:35:59;;;;;;;10.77;3.10;;;;;;;;;;5076821;28;20218;-91
2022/10/24 02:41:39;;;;;;;7.93;2.60;;;;;;;;;;5051312;28;20198;-91
2022/10/24 02:44:09;;;;;;;4.87;2.70;;;;;;;;;;5059687;28;20219;-91
2022/10/24 02:46:35;;;;;;;4.70;2.50;;;;;;;;;;5036509;28;20183;-91
2022/10/24 02:49:02;;;;;;;7.87;2.67;;;;;;;;;;5070499;28;20183;-79
2022/10/24 02:51:31;;;;;;;7.43;2.60;;;;;;;;;;5062316;28;20190;-78
2022/10/24 02:53:58;;;;;;;5.30;2.50;;;;;;;;;;5057672;28;20179;-90
2022/10/24 02:56:24;;;;;;;7.10;2.80;;;;;;;;;;5060953;28;20204;-90
2022/10/24 02:58:53;;;;;;;10.83;3.10;;;;;;;;;;5063077;28;20333;-91
2022/10/24 03:01:19;;;;;;;9.53;2.47;;;;;;;;;;5059886;28;20185;-82
2022/10/24 03:03:47;;;;;;;4.87;2.43;;;;;;;;;;5045406;28;20238;-82
2022/10/24 03:06:13;;;;;;;6.40;2.60;;;;;;;;;;5062327;28;20191;-82
2022/10/24 03:08:39;;;;;;;5.17;2.10;;;;;;;;;;5076719;28;20196;-82
2022/10/24 03:11:05;;;;;;;6.20;2.17;;;;;;;;;;5062571;28;20191;-82
2022/10/24 03:13:31;;;;;;;8.13;2.30;;;;;;;;;;5057546;28;20191;-82
2022/10/24 03:16:00;;;;;;;9.77;2.47;;;;;;;;;;5079472;28;20473;-82
2022/10/24 03:18:26;;;;;;;4.63;2.27;;;;;;;;;;5057086;28;20179;-82
2022/10/24 03:20:52;;;;;;;6.13;2.20;;;;;;;;;;5075870;28;20190;-82
2022/10/24 03:23:20;;;;;;;5.53;2.30;;;;;;;;;;5061441;28;20206;-82
2022/10/24 03:25:46;;;;;;;5.80;2.70;;;;;;;;;;5058485;28;20207;-81
2022/10/24 03:28:15;;;;;;;5.60;2.20;;;;;;;;;;5058865;28;20219;-78
2022/10/24 03:30:41;;;;;;;5.77;2.00;;;;;;;;;;5064363;28;20188;-78
2022/10/24 03:33:07;;;;;;;8.37;2.40;;;;;;;;;;5062139;28;20210;-78
2022/10/24 03:35:35;;;;;;;6.30;2.13;;;;;;;;;;5063706;28;20204;-79
2022/10/24 03:38:01;;;;;;;7.73;2.30;;;;;;;;;;5064662;28;20210;-82
2022/10/24 03:40:27;;;;;;;7.80;1.90;;;;;;;;;;5045994;28;20215;-82
2022/10/24 03:42:53;;;;;;;4.33;1.80;;;;;;;;;;5066337;28;20217;-82
2022/10/24 03:45:19;;;;;;;6.90;1.87;;;;;;;;;;5056169;28;20215;-90
2022/10/24 03:47:45;;;;;;;6.80;1.90;;;;;;;;;;5055860;28;20187;-90
2022/10/24 03:50:11;;;;;;;3.63;2.00;;;;;;;;;;5056552;28;20217;-90
2022/10/24 03:52:37;;;;;;;4.27;2.20;;;;;;;;;;5056625;28;20184;-79
2022/10/24 03:55:04;;;;;;;7.70;1.83;;;;;;;;;;5056934;28;20213;-78
2022/10/24 03:57:30;;;;;;;3.50;1.90;;;;;;;;;;5055435;28;20187;-79
2022/10/24 03:59:56;;;;;;;6.30;1.90;;;;;;;;;;5039984;28;20188;-79
2022/10/24 04:02:22;;;;;;;5.03;2.10;;;;;;;;;;5060271;28;20176;-78
2022/10/24 04:04:48;;;;;;;8.60;2.00;;;;;;;;;;5042846;28;20199;-78
2022/10/24 04:07:14;;;;;;;5.07;1.90;;;;;;;;;;5063294;28;20211;-78
2022/10/24 04:09:40;;;;;;;5.83;2.10;;;;;;;;;;5062918;28;20202;-78
2022/10/24 04:12:06;;;;;;;5.07;1.90;;;;;;;;;;5064152;28;20180;-83
2022/10/24 04:14:32;;;;;;;6.40;2.03;;;;;;;;;;5062485;28;20233;-83
2022/10/24 04:16:58;;;;;;;9.47;2.03;;;;;;;;;;5063808;28;20215;-83
2022/10/24 04:19:24;;;;;;;4.47;1.73;;;;;;;;;;5062687;28;20188;-82
2022/10/24 04:21:50;;;;;;;5.10;1.77;;;;;;;;;;5065891;28;20183;-82
2022/10/24 04:24:16;;;;;;;4.83;1.70;;;;;;;;;;5075878;28;20175;-83
2022/10/24 04:26:42;;;;;;;5.93;2.10;;;;;;;;;;5059806;28;20208;-82
2022/10/24 04:29:08;;;;;;;5.93;2.00;;;;;;;;;;5055144;28;20230;-82
2022/10/24 04:31:34;;;;;;;6.80;1.97;;;;;;;;;;5106105;22;20266;-83
2022/10/24 04:34:00;;;;;;;7.80;2.10;;;;;;;;;;5091998;28;20184;-83
2022/10/24 04:36:26;;;;;;;6.30;2.00;;;;;;;;;;5071694;28;20214;-83
2022/10/24 04:38:52;;;;;;;5.57;1.77;;;;;;;;;;5058102;28;20179;-83
2022/10/24 04:41:18;;;;;;;7.00;2.33;;;;;;;;;;5078689;28;20464;-82
2022/10/24 04:43:44;;;;;;;6.13;2.38;;;;;;;;;;5072284;28;20439;-77
2022/10/24 04:46:10;;;;;;;9.70;2.67;;;;;;;;;;5073702;28;20176;-77
2022/10/24 04:48:36;;;;;;;3.97;1.90;;;;;;;;;;5074977;28;20184;-76
2022/10/24 04:51:02;;;;;;;6.17;2.03;;;;;;;;;;5080384;28;20194;-77
2022/10/24 04:53:28;;;;;;;6.33;2.00;;;;;;;;;;5083378;28;20187;-77
2022/10/24 04:55:54;;;;;;;6.53;2.30;;;;;;;;;;5077564;28;20229;-82
2022/10/24 04:58:20;;;;;;;5.57;2.00;;;;;;;;;;5074143;28;20175;-82
2022/10/24 05:00:48;;;;;;;5.37;2.20;;;;;;;;;;5073956;28;20178;-90
2022/10/24 05:03:14;;;;;;;4.00;1.80;;;;;;;;;;5092429;28;20179;-89
2022/10/24 05:05:40;;;;;;;5.50;2.20;;;;;;;;;;5078519;28;20428;-89
2022/10/24 05:08:06;;;;;;;6.83;2.17;;;;;;;;;;5095435;28;20183;-80
2022/10/24 05:10:32;;;;;;;5.83;2.27;;;;;;;;;;5076516;28;20205;-80
2022/10/24 05:12:58;;;;;;;4.63;2.10;;;;;;;;;;5057679;28;20211;-80
2022/10/24 05:15:24;;;;;;;5.80;2.17;;;;;;;;;;5057906;28;20210;-80
2022/10/24 05:17:50;;;;;;;5.13;2.10;;;;;;;;;;5074984;28;20176;-89
2022/10/24 05:20:16;;;;;;;6.00;2.30;;;;;;;;;;5075303;28;20258;-90
2022/10/24 05:22:42;;;;;;;7.50;2.20;;;;;;;;;;5074528;28;20211;-89
2022/10/24 05:25:08;;;;;;;5.60;2.17;;;;;;;;;;5074658;28;20179;-91
2022/10/24 05:27:35;;;;;;;8.57;2.43;;;;;;;;;;5058195;28;20274;-91
2022/10/24 05:30:01;;;;;;;7.43;2.33;;;;;;;;;;5057558;28;20399;-91
2022/10/24 05:32:27;;;;;;;10.20;2.63;;;;;;;;;;5056425;28;20223;-90
2022/10/24 05:34:53;;;;;;;6.23;2.10;;;;;;;;;;5055316;28;20172;-83
2022/10/24 05:37:19;;;;;;;4.87;2.03;;;;;;;;;;5037919;28;20304;-83
2022/10/24 05:39:45;;;;;;;8.30;1.90;;;;;;;;;;5054239;28;20205;-83
2022/10/24 05:42:11;;;;;;;9.73;2.30;;;;;;;;;;5054319;28;20244;-83
2022/10/24 05:44:37;;;;;;;6.87;2.30;;;;;;;;;;5054199;28;20287;-83
2022/10/24 05:47:03;;;;;;;6.37;2.57;;;;;;;;;;5053949;28;20229;-83
2022/10/24 05:49:29;;;;;;;7.33;2.17;;;;;;;;;;5055329;28;20180;-83
2022/10/24 05:51:55;;;;;;;6.53;2.10;;;;;;;;;;5038702;28;20198;-89
2022/10/24 05:54:21;;;;;;;8.00;2.10;;;;;;;;;;5038504;28;20192;-90
2022/10/24 05:56:47;;;;;;;6.83;2.30;;;;;;;;;;5038389;28;20310;-89
2022/10/24 05:59:13;;;;;;;9.97;2.67;;;;;;;;;;5054284;28;20207;-92
2022/10/24 06:01:40;;;;;;;7.03;2.20;;;;;;;;;;5038203;28;20274;-88
2022/10/24 06:04:06;;;;;;;8.73;2.10;;;;;;;;;;5037601;28;20184;-91
2022/10/24 06:06:33;;;;;;;6.77;2.20;;;;;;;;;;5056058;28;20191;-91
2022/10/24 06:08:59;;;;;;;8.30;2.10;;;;;;;;;;5053483;28;20219;-83
2022/10/24 06:11:25;;;;;;;9.43;2.20;;;;;;;;;;5068750;28;20208;-83
2022/10/24 06:13:51;;;;;;;9.30;2.27;;;;;;;;;;5068259;28;20226;-83
2022/10/24 06:16:17;;;;;;;5.73;2.03;;;;;;;;;;5052919;28;20208;-83
2022/10/24 06:18:43;;;;;;;8.60;2.13;;;;;;;;;;5051752;28;20207;-83
2022/10/24 06:21:09;;;;;;;6.57;2.17;;;;;;;;;;5053165;28;20215;-83
2022/10/24 06:23:35;;;;;;;7.63;2.20;;;;;;;;;;5053464;28;20182;-78
2022/10/24 06:26:01;;;;;;;9.13;2.20;;;;;;;;;;5053255;28;20184;-78
2022/10/24 06:28:28;;;;;;;6.63;2.20;;;;;;;;;;5069848;28;20188;-78
2022/10/24 06:30:54;;;;;;;9.95;2.67;;;;;;;;;;5070908;28;20432;-78
2022/10/24 06:33:43;;;;;;;11.23;2.57;;;;;;;;;;5069419;28;20179;-78
2022/10/24 06:36:08;;;;;;;10.63;2.70;;;;;;;;;;5052810;28;20211;-77
2022/10/24 06:38:34;;;;;;;8.97;2.30;;;;;;;;;;5053360;28;20235;-77
2022/10/24 06:41:05;;;;;;;5.80;2.10;;;;;;;;;;5036351;28;20247;-78
2022/10/24 06:43:31;;;;;;;6.37;1.90;;;;;;;;;;5047908;28;20253;-77
2022/10/24 06:45:57;;;;;;;8.33;2.40;;;;;;;;;;5042170;28;20179;-77
2022/10/24 06:48:23;;;;;;;6.13;2.40;;;;;;;;;;5069327;28;20214;-77
2022/10/24 06:50:49;;;;;;;10.00;2.27;;;;;;;;;;5094259;28;20191;-77
2022/10/24 06:53:14;;;;;;;12.73;2.37;;;;;;;;;;5056323;28;20189;-77
2022/10/24 06:55:40;;;;;;;8.10;2.27;;;;;;;;;;5072765;28;20256;-77
2022/10/24 06:58:07;;;;;;;8.63;2.20;;;;;;;;;;5056363;28;20179;-90
2022/10/24 07:00:33;;;;;;;8.93;2.10;;;;;;;;;;5072822;28;20175;-91
2022/10/24 07:03:00;;;;;;;8.97;2.13;;;;;;;;;;5056076;28;20214;-90
2022/10/24 07:05:26;;;;;;;7.57;2.00;;;;;;;;;;5055377;28;20194;-90
2022/10/24 07:07:52;;;;;;;11.13;2.63;;;;;;;;;;5072645;28;20182;-89
2022/10/24 07:10:18;;;;;;;8.10;2.23;;;;;;;;;;5055343;28;20183;-91
2022/10/24 07:12:44;;;;;;;6.37;2.20;;;;;;;;;;5072980;28;20183;-91
2022/10/24 07:15:10;;;;;;;6.57;2.03;;;;;;;;;;5055216;28;20183;-90
2022/10/24 07:17:40;;;;;;;6.60;2.17;;;;;;;;;;5072539;28;20172;-90
2022/10/24 07:20:07;;;;;;;8.00;2.20;;;;;;;;;;5072888;28;20171;-90
2022/10/24 07:22:33;;;;;;;9.30;2.30;;;;;;;;;;5073289;28;20179;-91
2022/10/24 07:24:59;;;;;;;10.20;2.60;;;;;;;;;;5059256;28;20183;-92
2022/10/24 07:27:25;;;;;;;8.90;2.50;;;;;;;;;;5056414;28;20183;-89
2022/10/24 07:29:52;;;;;;;8.90;2.73;;;;;;;;;;5072736;28;20279;-89
2022/10/24 07:32:18;;;;;;;8.53;2.57;;;;;;;;;;5092700;28;20240;-90
2022/10/24 07:34:46;;;;;;;9.07;2.40;;;;;;;;;;5114718;28;20219;-90
2022/10/24 07:37:12;;;;;;;8.33;2.60;;;;;;;;;;5079783;28;20321;-89
2022/10/24 07:39:39;;;;;;;6.60;2.23;;;;;;;;;;5079673;28;20181;-89
2022/10/24 07:42:05;;;;;;;7.00;2.27;;;;;;;;;;5065984;28;20194;-90
2022/10/24 07:44:31;;;;;;;12.00;2.77;;;;;;;;;;5075645;28;20201;-90
2022/10/24 07:46:57;;;;;;;8.80;2.47;;;;;;;;;;5093639;28;20175;-90
2022/10/24 07:49:23;;;;;;;8.37;2.33;;;;;;;;;;5093769;28;20167;-91
2022/10/24 07:51:49;;;;;;;7.47;2.77;;;;;;;;;;5059275;28;20221;-90
2022/10/24 07:54:15;;;;;;;8.17;2.77;;;;;;;;;;5074625;28;20174;-89
2022/10/24 07:56:41;;;;;;;5.47;2.03;;;;;;;;;;5058460;28;20213;-90
2022/10/24 07:59:07;;;;;;;10.43;2.33;;;;;;;;;;5059095;28;20171;-89
2022/10/24 08:01:33;;;;;;;10.10;2.67;;;;;;;;;;5059375;28;20201;-89
2022/10/24 08:03:59;;;;;;;10.30;2.50;;;;;;;;;;5059552;28;20186;-80
2022/10/24 08:06:28;;;;;;;9.27;2.07;;;;;;;;;;5058986;28;20183;-80
2022/10/24 08:08:55;;;;;;;7.30;2.13;;;;;;;;;;5093653;28;20206;-80
2022/10/24 08:11:23;;;;;;;8.47;2.00;;;;;;;;;;5059149;28;20186;-80
2022/10/24 08:13:49;;;;;;;10.32;2.60;;;;;;;;;;5075391;28;20459;-80
2022/10/24 08:16:16;;;;;;;9.67;2.40;;;;;;;;;;5076911;28;20206;-79
2022/10/24 08:18:43;;;;;;;8.10;2.33;;;;;;;;;;5068594;28;20493;-80
2022/10/24 08:21:10;;;;;;;9.53;2.27;;;;;;;;;;5090128;28;20174;-83
2022/10/24 08:23:37;;;;;;;8.35;2.60;;;;;;;;;;5079109;28;20434;-82
2022/10/24 08:26:06;;;;;;;10.80;2.33;;;;;;;;;;5078719;28;20175;-82
2022/10/24 08:28:33;;;;;;;12.13;2.75;;;;;;;;;;5061587;28;20460;-82
2022/10/24 08:31:00;;;;;;;9.98;2.70;;;;;;;;;;5089236;28;20430;-82
2022/10/24 08:33:26;;;;;;;10.40;2.70;;;;;;;;;;5079592;28;20428;-82
2022/10/24 08:35:58;;;;;;;11.85;2.60;;;;;;;;;;5061644;28;20429;-83
2022/10/24 08:38:24;;;;;;;10.57;2.47;;;;;;;;;;5078038;28;20405;-83
2022/10/24 08:40:50;;;;;;;8.13;2.27;;;;;;;;;;5077862;28;20401;-83
2022/10/24 08:43:17;;;;;;;8.03;2.30;;;;;;;;;;5061145;28;20401;-83
2022/10/24 08:45:43;;;;;;;9.60;2.30;;;;;;;;;;5060979;28;20405;-83
2022/10/24 08:48:13;;;;;;;7.97;2.30;;;;;;;;;;5077972;28;20228;-83
2022/10/24 08:50:41;;;;;;;7.23;2.13;;;;;;;;;;5078068;28;20236;-83
2022/10/24 08:53:24;;;;;;;5.23;1.80;;;;;;;;;;5096374;28;20177;-83
2022/10/24 08:55:54;;;;;;;10.67;2.20;;;;;;;;;;5095036;28;20285;-89
2022/10/24 08:58:24;;;;;;;6.70;2.30;;;;;;;;;;5095858;28;20403;-90
2022/10/24 09:00:51;;;;;;;8.40;1.90;;;;;;;;;;5078218;28;20174;-89
2022/10/24 09:03:35;;;;;;;7.43;2.20;;;;;;;;;;5076784;28;20553;-90
2022/10/24 09:06:22;;;;;;;9.57;2.30;;;;;;;;;;5075967;28;20412;-90
2022/10/24 09:08:55;;;;;;;7.95;2.40;;;;;;;;;;5093504;28;20413;-90
2022/10/24 09:11:24;;;;;;;7.20;1.90;;;;;;;;;;5077988;28;20175;-80
2022/10/24 09:13:50;;;;;;;5.70;1.70;;;;;;;;;;5095932;28;20250;-80
2022/10/24 09:16:19;;;;;;;6.27;1.60;;;;;;;;;;5078084;28;20278;-80
2022/10/24 09:18:46;;;;;;;7.53;1.90;;;;;;;;;;5078055;28;20282;-80
2022/10/24 09:21:14;;;;;;;9.07;2.10;;;;;;;;;;5077938;28;20174;-79
2022/10/24 09:23:41;;;;;;;11.67;2.03;;;;;;;;;;5077699;28;20213;-80
2022/10/24 09:26:12;;;;;;;4.80;1.70;;;;;;;;;;5077432;28;20175;-80
2022/10/24 09:28:38;;;;;;;10.90;2.17;;;;;;;;;;5077593;28;20178;-79
2022/10/24 09:31:14;;;;;;;4.93;1.60;;;;;;;;;;5077616;28;20223;-80
2022/10/24 09:33:41;;;;;;;21.70;3.00;;;;;;;;;;5077422;28;20178;-80
2022/10/24 09:36:11;;;;;;;6.07;1.90;;;;;;;;;;5077184;28;20241;-79
2022/10/24 09:38:39;;;;;;;4.93;1.63;;;;;;;;;;5077585;28;20179;-80
2022/10/24 09:41:05;;;;;;;6.50;1.77;;;;;;;;;;5077164;28;20186;-80
2022/10/24 09:43:31;;;;;;;5.90;1.70;;;;;;;;;;5077479;28;20171;-80
2022/10/24 09:46:05;;;;;;;10.17;1.90;;;;;;;;;;5077195;28;20413;-80
2022/10/24 09:48:50;;;;;;;6.35;2.00;;;;;;;;;;5094573;28;20420;-80
2022/10/24 09:51:18;;;;;;;7.18;2.15;;;;;;;;;;5094042;28;20400;-80
2022/10/24 09:53:57;;;;;;;7.95;2.00;;;;;;;;;;5076398;28;20439;-80
2022/10/24 09:56:31;;;;;;;6.03;1.95;;;;;;;;;;5076413;28;20429;-81
2022/10/24 09:59:11;;;;;;;9.57;1.75;;;;;;;;;;5076919;28;20176;-80
2022/10/24 10:01:37;;;;;;;6.15;1.80;;;;;;;;;;5076602;28;20401;-83
2022/10/24 10:04:04;;;;;;;8.85;2.00;;;;;;;;;;5060536;28;20208;-83
2022/10/24 10:06:32;;;;;;;8.10;2.00;;;;;;;;;;5076810;28;20205;-83
2022/10/24 10:08:58;;;;;;;5.43;1.50;;;;;;;;;;5076744;28;20179;-82
2022/10/24 10:11:29;;;;;;;7.73;1.80;;;;;;;;;;5076714;28;20181;-83
2022/10/24 10:13:55;;;;;;;5.00;1.50;;;;;;;;;;5076421;28;20183;-83
2022/10/24 10:16:27;;;;;;;6.97;2.05;;;;;;;;;;5076111;28;20516;-82
2022/10/24 10:19:12;;;;;;;5.80;1.73;;;;;;;;;;5076151;28;20185;-90
2022/10/24 10:21:54;;;;;;;7.60;2.00;;;;;;;;;;5076410;28;20178;-90
2022/10/24 10:24:25;;;;;;;5.53;1.67;;;;;;;;;;5091415;28;20186;-90
2022/10/24 10:26:51;;;;;;;5.57;1.60;;;;;;;;;;5077049;28;20182;-91
2022/10/24 10:29:17;;;;;;;5.27;1.70;;;;;;;;;;5065785;28;20227;-90
2022/10/24 10:31:49;;;;;;;4.87;1.57;;;;;;;;;;5084599;28;20222;-90
2022/10/24 10:34:22;;;;;;;5.67;1.60;;;;;;;;;;5095255;28;20185;-81
2022/10/24 10:36:54;;;;;;;8.13;2.13;;;;;;;;;;5075542;28;20205;-80
2022/10/24 10:39:23;;;;;;;7.60;1.80;;;;;;;;;;5072781;28;20453;-80
2022/10/24 10:41:58;;;;;;;10.70;1.90;;;;;;;;;;5075836;28;20167;-80
2022/10/24 10:44:47;;;;;;;6.55;1.73;;;;;;;;;;5073823;28;20405;-80
2022/10/24 10:47:38;;;;;;;4.93;1.40;;;;;;;;;;5091932;28;20174;-80
2022/10/24 10:50:36;;;;;;;4.70;1.50;;;;;;;;;;5091933;28;20179;-80
2022/10/24 10:53:21;;;;;;;8.30;1.70;;;;;;;;;;5021280;28;20218;-83
2022/10/24 10:56:02;;;;;;;4.93;1.50;;;;;;;;;;5090792;28;20198;-82
2022/10/24 10:58:45;;;;;;;5.97;1.80;;;;;;;;;;5073954;28;20408;-82
2022/10/24 11:01:20;;;;;;;8.23;1.80;;;;;;;;;;5074728;28;20261;-82
2022/10/24 11:04:16;;;;;;;5.60;1.83;;;;;;;;;;5094308;28;20166;-82
2022/10/24 11:07:02;;;;;;;5.47;1.60;;;;;;;;;;5052750;28;20226;-83
2022/10/24 11:09:32;;;;;;;9.27;1.97;;;;;;;;;;5085808;28;20202;-80
2022/10/24 11:12:09;;;;;;;3.63;1.30;;;;;;;;;;5076533;28;20201;-80
2022/10/24 11:14:37;;;;;;;4.90;1.87;;;;;;;;;;5094294;28;20178;-80
2022/10/24 11:17:10;;;;;;;5.77;2.00;;;;;;;;;;5075696;28;20206;-80
2022/10/24 11:19:45;;;;;;;8.90;1.87;;;;;;;;;;5076167;28;20240;-80
2022/10/24 11:22:17;;;;;;;7.80;1.90;;;;;;;;;;5094174;28;20174;-80
2022/10/24 11:24:44;;;;;;;6.87;1.80;;;;;;;;;;5075830;28;20405;-83
2022/10/24 11:27:15;;;;;;;6.73;1.80;;;;;;;;;;5076000;28;20179;-83
2022/10/24 11:29:47;;;;;;;5.80;1.60;;;;;;;;;;5075995;28;20179;-82
2022/10/24 11:32:16;;;;;;;5.57;1.50;;;;;;;;;;5072408;28;20231;-83
2022/10/24 11:34:49;;;;;;;7.57;1.90;;;;;;;;;;5073816;28;20176;-82
2022/10/24 11:37:26;;;;;;;6.03;1.90;;;;;;;;;;5072469;28;20207;-83
2022/10/24 11:40:11;;;;;;;7.37;1.90;;;;;;;;;;5052677;28;20175;-82
2022/10/24 11:42:43;;;;;;;8.03;1.83;;;;;;;;;;5052411;28;20180;-77
2022/10/24 11:45:10;;;;;;;4.60;1.50;;;;;;;;;;5062300;28;20186;-77
2022/10/24 11:47:39;;;;;;;6.93;1.70;;;;;;;;;;5089116;28;20171;-77
2022/10/24 11:50:21;;;;;;;3.77;1.47;;;;;;;;;;5091396;28;20183;-77
2022/10/24 11:53:02;;;;;;;4.90;1.30;;;;;;;;;;5076320;28;20207;-78
2022/10/24 11:55:37;;;;;;;6.67;1.53;;;;;;;;;;5075844;28;20182;-78
2022/10/24 11:58:07;;;;;;;4.23;1.57;;;;;;;;;;5110411;28;20174;-82
2022/10/24 12:00:53;;;;;;;4.40;1.60;;;;;;;;;;5110187;28;20176;-82
2022/10/24 12:03:26;;;;;;;5.30;1.57;;;;;;;;;;5110094;28;20229;-82
2022/10/24 12:06:07;;;;;;;6.23;1.50;;;;;;;;;;5110061;28;20179;-82
2022/10/24 12:08:46;;;;;;;6.43;1.77;;;;;;;;;;5110354;28;20175;-82
2022/10/24 12:11:19;;;;;;;4.23;1.60;;;;;;;;;;5077083;28;20175;-82
2022/10/24 12:13:45;;;;;;;10.17;2.10;;;;;;;;;;5109858;28;20183;-82
2022/10/24 12:16:30;;;;;;;5.73;1.80;;;;;;;;;;5076721;28;20199;-82
2022/10/24 12:18:58;;;;;;;7.23;2.20;;;;;;;;;;5086207;28;20206;-82
2022/10/24 12:21:34;;;;;;;6.00;1.80;;;;;;;;;;5075467;28;20175;-82
2022/10/24 12:24:00;;;;;;;5.63;1.83;;;;;;;;;;5109545;28;20179;-82
2022/10/24 12:26:26;;;;;;;5.50;1.90;;;;;;;;;;5107166;28;20183;-82
2022/10/24 12:28:57;;;;;;;6.53;2.00;;;;;;;;;;5075361;28;20180;-82
2022/10/24 12:31:30;;;;;;;6.00;2.37;;;;;;;;;;5075875;28;20234;-91
2022/10/24 12:34:17;;;;;;;4.40;1.53;;;;;;;;;;5076667;28;20183;-90
2022/10/24 12:37:02;;;;;;;4.97;1.70;;;;;;;;;;5072112;28;20226;-90
2022/10/24 12:39:35;;;;;;;5.87;2.00;;;;;;;;;;5087859;28;20316;-90
2022/10/24 12:42:01;;;;;;;9.53;1.93;;;;;;;;;;5086560;28;20171;-90
2022/10/24 12:44:33;;;;;;;7.30;1.90;;;;;;;;;;5075836;28;20187;-90
2022/10/24 12:47:00;;;;;;;7.53;2.47;;;;;;;;;;5076305;28;20176;-91
2022/10/24 12:49:27;;;;;;;9.87;2.33;;;;;;;;;;5093766;28;20180;-90
2022/10/24 12:51:53;;;;;;;7.70;2.50;;;;;;;;;;5077300;28;20178;-90
2022/10/24 12:54:37;;;;;;;7.17;2.30;;;;;;;;;;5077370;28;20203;-91
2022/10/24 12:57:03;;;;;;;8.63;2.67;;;;;;;;;;5092452;28;20211;-90
2022/10/24 12:59:53;;;;;;;9.77;2.30;;;;;;;;;;5092545;28;20248;-90
2022/10/24 13:02:19;;;;;;;6.07;1.93;;;;;;;;;;5064840;28;20183;-90
2022/10/24 13:04:48;;;;;;;7.30;2.30;;;;;;;;;;5076216;28;20181;-77
2022/10/24 13:07:39;;;;;;;6.70;2.07;;;;;;;;;;5076078;28;20179;-77
2022/10/24 13:10:24;;;;;;;9.23;2.47;;;;;;;;;;5091845;28;20171;-77
2022/10/24 13:13:09;;;;;;;7.50;2.45;;;;;;;;;;5091902;28;20406;-77
2022/10/24 13:15:41;;;;;;;8.20;2.63;;;;;;;;;;5091449;28;20179;-77
2022/10/24 13:18:10;;;;;;;6.30;2.07;;;;;;;;;;5091396;28;20167;-77
2022/10/24 13:20:42;;;;;;;10.53;2.33;;;;;;;;;;5091825;28;20182;-77
2022/10/24 13:23:14;;;;;;;8.63;2.17;;;;;;;;;;5074807;28;20176;-77
2022/10/24 13:25:40;;;;;;;8.83;2.40;;;;;;;;;;5108348;28;20179;-77
2022/10/24 13:28:34;;;;;;;11.60;4.40;;;;;;;;;;5108341;28;20167;-77
2022/10/24 13:31:00;;;;;;;6.97;3.27;;;;;;;;;;5107835;28;20219;-77
2022/10/24 13:33:32;;;;;;;11.50;2.50;;;;;;;;;;5108389;28;20282;-77
2022/10/24 13:36:16;;;;;;;5.73;2.20;;;;;;;;;;5095719;28;20215;-77
2022/10/24 13:38:56;;;;;;;6.23;2.70;;;;;;;;;;5091725;28;20182;-82
2022/10/24 13:41:34;;;;;;;7.73;2.80;;;;;;;;;;5074503;28;20186;-82
2022/10/24 13:44:02;;;;;;;8.93;3.22;;;;;;;;;;5101670;28;20396;-82
2022/10/24 13:46:35;;;;;;;7.47;2.60;;;;;;;;;;5089422;28;20209;-82
2022/10/24 13:49:02;;;;;;;6.80;2.43;;;;;;;;;;5096072;28;20400;-82
2022/10/24 13:51:36;;;;;;;8.90;2.70;;;;;;;;;;5077031;28;20453;-82
2022/10/24 13:54:18;;;;;;;5.80;2.17;;;;;;;;;;5075355;28;20171;-80
2022/10/24 13:56:45;;;;;;;7.97;2.47;;;;;;;;;;5073478;28;20245;-80
2022/10/24 13:59:27;;;;;;;11.93;2.40;;;;;;;;;;5073941;28;20247;-80
2022/10/24 14:01:53;;;;;;;6.57;2.47;;;;;;;;;;5073914;28;20182;-80
2022/10/24 14:04:19;;;;;;;7.63;2.70;;;;;;;;;;5084966;28;20178;-80
2022/10/24 14:06:45;;;;;;;9.07;2.80;;;;;;;;;;5061038;28;20200;-80
2022/10/24 14:09:11;;;;;;;7.97;2.43;;;;;;;;;;5095149;28;20210;-80
2022/10/24 14:11:41;;;;;;;7.80;2.50;;;;;;;;;;5061260;28;20195;-90
2022/10/24 14:14:17;;;;;;;9.53;2.53;;;;;;;;;;5076785;28;20183;-91
2022/10/24 14:16:43;;;;;;;8.97;2.20;;;;;;;;;;5076986;28;20210;-90
2022/10/24 14:19:29;;;;;;;8.50;2.17;;;;;;;;;;5076927;28;20181;-91
2022/10/24 14:21:55;;;;;;;9.60;2.87;;;;;;;;;;5095357;28;20174;-90
2022/10/24 14:24:22;;;;;;;7.67;2.60;;;;;;;;;;5060552;28;20211;-90
2022/10/24 14:26:50;;;;;;;9.40;2.53;;;;;;;;;;5077229;28;20245;-90
2022/10/24 14:29:27;;;;;;;9.67;2.80;;;;;;;;;;5096487;28;20178;-82
2022/10/24 14:31:55;;;;;;;10.93;2.90;;;;;;;;;;5085358;28;20422;-82
2022/10/24 14:34:21;;;;;;;8.77;2.37;;;;;;;;;;5085190;28;20178;-82
2022/10/24 14:36:47;;;;;;;11.17;2.10;;;;;;;;;;5109179;28;20273;-81
2022/10/24 14:39:22;;;;;;;8.57;2.40;;;;;;;;;;5088349;28;20185;-82
2022/10/24 14:41:49;;;;;;;7.93;2.60;;;;;;;;;;5101483;28;20224;-82
2022/10/24 14:44:16;;;;;;;8.83;3.00;;;;;;;;;;5099660;28;20181;-80
2022/10/24 14:46:43;;;;;;;8.00;2.70;;;;;;;;;;5073419;28;20192;-80
2022/10/24 14:49:20;;;;;;;7.43;2.30;;;;;;;;;;5073158;28;20175;-80
2022/10/24 14:51:47;;;;;;;7.33;2.43;;;;;;;;;;5073511;28;20214;-80
2022/10/24 14:54:24;;;;;;;8.50;2.60;;;;;;;;;;5100323;28;20188;-80
2022/10/24 14:56:52;;;;;;;8.73;2.60;;;;;;;;;;5096715;28;20212;-80
2022/10/24 14:59:27;;;;;;;7.13;2.27;;;;;;;;;;5096416;28;20265;-80
2022/10/24 15:01:58;;;;;;;9.03;2.37;;;;;;;;;;5082736;28;20171;-80